Time;durP1;ratioP1;P1;durP2;ratioP2;P2;SDS_P1;SDS_P2;PMS_P1;PMS_P2;Temp;Humidity;BMP_temperature;BMP_pressure;BME280_temperature;BME280_humidity;BME280_pressure;Samples;Min_cycle;Max_cycle;Signal;HPM_P1;HPM_P2
2021/04/02 00:02:15;;;;;;;;;;;;;;;;;;4992551;28;20458;-73
2021/04/02 00:04:40;;;;;;;;;;;;;;;;;;4975241;28;19945;-73
2021/04/02 00:07:07;;;;;;;;;;;;;;;;;;4995986;28;19922;-73
2021/04/02 00:09:33;;;;;;;;;;;;;;;;;;4994948;28;20392;-73
2021/04/02 00:11:59;;;;;;;;;;;;;;;;;;5007602;28;19928;-72
2021/04/02 00:14:25;;;;;;;;;;;;;;;;;;5008045;28;19979;-73
2021/04/02 00:16:51;;;;;;;;;;;;;;;;;;5011789;28;19973;-73
2021/04/02 00:19:17;;;;;;;;;;;;;;;;;;5005461;28;20376;-73
2021/04/02 00:21:43;;;;;;;;;;;;;;;;;;5014283;28;19921;-73
2021/04/02 00:24:09;;;;;;;;;;;;;;;;;;5015763;28;19927;-72
2021/04/02 00:26:35;;;;;;;;;;;;;;;;;;5014049;28;19929;-73
2021/04/02 00:29:01;;;;;;;;;;;;;;;;;;5014807;28;20338;-73
2021/04/02 00:31:27;;;;;;;;;;;;;;;;;;5030958;28;19921;-73
2021/04/02 00:33:53;;;;;;;;;;;;;;;;;;5016755;28;20391;-73
2021/04/02 00:36:19;;;;;;;;;;;;;;;;;;5027262;28;19921;-73
2021/04/02 00:38:45;;;;;;;;;;;;;;;;;;5006369;28;19956;-72
2021/04/02 00:41:12;;;;;;;;;;;;;;;;;;5033691;28;20330;-73
2021/04/02 00:43:38;;;;;;;;;;;;;;;;;;5034434;28;19920;-73
2021/04/02 00:46:05;;;;;;;;;;;;;;;;;;5033256;28;19925;-72
2021/04/02 00:48:31;;;;;;;;;;;;;;;;;;5034018;28;19957;-73
2021/04/02 00:51:01;;;;;;;;;;;;;;;;;;5034073;28;20004;-73
2021/04/02 00:53:29;;;;;;;;;;;;;;;;;;5033659;28;19921;-73
2021/04/02 00:55:55;;;;;;;;;;;;;;;;;;5033224;28;19925;-73
2021/04/02 00:58:22;;;;;;;;;;;;;;;;;;5017544;28;20320;-72
2021/04/02 01:00:49;;;;;;;;;;;;;;;;;;5035071;28;20376;-72
2021/04/02 01:03:15;;;;;;;;;;;;;;;;;;5033492;28;20461;-73
2021/04/02 01:05:45;;;;;;;;;;;;;;;;;;5034206;28;20361;-72
2021/04/02 01:08:12;;;;;;;;;;;;;;;;;;5033625;28;19924;-73
2021/04/02 01:10:38;;;;;;;;;;;;;;;;;;5033673;28;20006;-73
2021/04/02 01:13:11;;;;;;;;;;;;;;;;;;5033530;28;19921;-73
2021/04/02 01:15:45;;;;;;;;;;;;;;;;;;5032934;28;19964;-73
2021/04/02 01:18:16;;;;;;;;;;;;;;;;;;5034694;28;19925;-73
2021/04/02 01:20:43;;;;;;;;;;;;;;;;;;5033533;28;19924;-73
2021/04/02 01:23:09;;;;;;;;;;;;;;;;;;5034542;28;20047;-73
2021/04/02 01:25:47;;;;;;;;;;;;;;;;;;5016364;28;19975;-73
2021/04/02 01:28:19;;;;;;;;;;;;;;;;;;5033116;28;19921;-73
2021/04/02 01:30:45;;;;;;;;;;;;;;;;;;5033741;28;20457;-73
2021/04/02 01:33:11;;;;;;;;;;;;;;;;;;5033373;28;19928;-73
2021/04/02 01:35:37;;;;;;;;;;;;;;;;;;5032435;28;19928;-72
2021/04/02 01:38:22;;;;;;;;;;;;;;;;;;5033280;28;19975;-73
2021/04/02 01:40:49;;;;;;;;;;;;;;;;;;5022968;28;19921;-72
2021/04/02 01:43:16;;;;;;;;;;;;;;;;;;4997036;28;19932;-72
2021/04/02 01:45:42;;;;;;;;;;;;;;;;;;4978526;28;20380;-72
2021/04/02 01:48:09;;;;;;;;;;;;;;;;;;5013317;28;20375;-72
2021/04/02 01:50:38;;;;;;;;;;;;;;;;;;5009498;28;19957;-72
2021/04/02 01:53:05;;;;;;;;;;;;;;;;;;5009778;28;19961;-73
2021/04/02 01:55:34;;;;;;;;;;;;;;;;;;5008632;28;19929;-73
2021/04/02 01:58:00;;;;;;;;;;;;;;;;;;5009789;28;19921;-73
2021/04/02 02:00:36;;;;;;;;;;;;;;;;;;5002379;28;20277;-73
2021/04/02 02:03:02;;;;;;;;;;;;;;;;;;5014206;28;19960;-73
2021/04/02 02:05:28;;;;;;;;;;;;;;;;;;5012084;28;19983;-73
2021/04/02 02:07:55;;;;;;;;;;;;;;;;;;5012906;28;20605;-73
2021/04/02 02:10:21;;;;;;;;;;;;;;;;;;5012690;28;20434;-73
2021/04/02 02:12:47;;;;;;;;;;;;;;;;;;5012658;28;20016;-73
2021/04/02 02:15:14;;;;;;;;;;;;;;;;;;4995933;28;20300;-73
2021/04/02 02:17:41;;;;;;;;;;;;;;;;;;5012345;28;19925;-73
2021/04/02 02:20:08;;;;;;;;;;;;;;;;;;5012533;28;20303;-73
2021/04/02 02:22:34;;;;;;;;;;;;;;;;;;5012574;28;20060;-73
2021/04/02 02:25:00;;;;;;;;;;;;;;;;;;5013531;28;19933;-73
2021/04/02 02:27:26;;;;;;;;;;;;;;;;;;5011917;28;19972;-73
2021/04/02 02:29:52;;;;;;;;;;;;;;;;;;5009866;28;19928;-73
2021/04/02 02:32:18;;;;;;;;;;;;;;;;;;4992675;28;19972;-73
2021/04/02 02:34:44;;;;;;;;;;;;;;;;;;4993808;28;19974;-73
2021/04/02 02:37:10;;;;;;;;;;;;;;;;;;4993393;28;19933;-73
2021/04/02 02:39:36;;;;;;;;;;;;;;;;;;4992806;28;19926;-73
2021/04/02 02:42:03;;;;;;;;;;;;;;;;;;4993865;28;19984;-73
2021/04/02 02:44:29;;;;;;;;;;;;;;;;;;4992555;28;19926;-73
2021/04/02 02:46:55;;;;;;;;;;;;;;;;;;4991732;28;19972;-72
2021/04/02 02:49:21;;;;;;;;;;;;;;;;;;4992437;28;20425;-73
2021/04/02 02:51:47;;;;;;;;;;;;;;;;;;4992612;28;20383;-73
2021/04/02 02:54:14;;;;;;;;;;;;;;;;;;4992268;28;19932;-73
2021/04/02 02:56:40;;;;;;;;;;;;;;;;;;4993708;28;19964;-73
2021/04/02 02:59:07;;;;;;;;;;;;;;;;;;4992755;28;19922;-73
2021/04/02 03:01:33;;;;;;;;;;;;;;;;;;5001558;28;20376;-73
2021/04/02 03:03:59;;;;;;;;;;;;;;;;;;5003617;28;19921;-73
2021/04/02 03:06:25;;;;;;;;;;;;;;;;;;5011153;28;20008;-74
2021/04/02 03:08:53;;;;;;;;;;;;;;;;;;5012070;28;19929;-73
2021/04/02 03:11:22;;;;;;;;;;;;;;;;;;5001588;28;19921;-73
2021/04/02 03:13:51;;;;;;;;;;;;;;;;;;5003091;28;20545;-73
2021/04/02 03:16:17;;;;;;;;;;;;;;;;;;5002287;28;19922;-73
2021/04/02 03:18:44;;;;;;;;;;;;;;;;;;4990186;28;20261;-73
2021/04/02 03:21:10;;;;;;;;;;;;;;;;;;4995827;28;19926;-73
2021/04/02 03:23:36;;;;;;;;;;;;;;;;;;4982678;28;19922;-73
2021/04/02 03:26:02;;;;;;;;;;;;;;;;;;4975320;28;19968;-73
2021/04/02 03:28:28;;;;;;;;;;;;;;;;;;4975671;28;19921;-73
2021/04/02 03:30:55;;;;;;;;;;;;;;;;;;4976040;28;19956;-73
2021/04/02 03:33:22;;;;;;;;;;;;;;;;;;4959730;28;19922;-73
2021/04/02 03:35:48;;;;;;;;;;;;;;;;;;4975561;28;19984;-73
2021/04/02 03:38:14;;;;;;;;;;;;;;;;;;4975843;28;19975;-73
2021/04/02 03:40:41;;;;;;;;;;;;;;;;;;4975934;28;19976;-73
2021/04/02 03:43:07;;;;;;;;;;;;;;;;;;4976244;28;19921;-74
2021/04/02 03:45:33;;;;;;;;;;;;;;;;;;4998336;23;19988;-72
2021/04/02 03:48:01;;;;;;;;;;;;;;;;;;4991529;28;19926;-72
2021/04/02 03:50:29;;;;;;;;;;;;;;;;;;4991524;28;19976;-72
2021/04/02 03:53:00;;;;;;;;;;;;;;;;;;4991026;28;20395;-72
2021/04/02 03:55:26;;;;;;;;;;;;;;;;;;4990720;28;19988;-72
2021/04/02 03:57:51;;;;;;;;;;;;;;;;;;4973425;28;20408;-72
2021/04/02 04:00:19;;;;;;;;;;;;;;;;;;4955539;28;19934;-72
2021/04/02 04:02:45;;;;;;;;;;;;;;;;;;4955980;28;19980;-72
2021/04/02 04:05:13;;;;;;;;;;;;;;;;;;4939668;28;19926;-72
2021/04/02 04:07:39;;;;;;;;;;;;;;;;;;4972959;28;19987;-73
2021/04/02 04:10:05;;;;;;;;;;;;;;;;;;5007593;28;19921;-72
2021/04/02 04:12:31;;;;;;;;;;;;;;;;;;4992625;28;20346;-72
2021/04/02 04:14:57;;;;;;;;;;;;;;;;;;5007602;28;19922;-72
2021/04/02 04:17:23;;;;;;;;;;;;;;;;;;5006378;28;19922;-72
2021/04/02 04:19:49;;;;;;;;;;;;;;;;;;4992478;28;20375;-72
2021/04/02 04:22:15;;;;;;;;;;;;;;;;;;4992503;28;20024;-72
2021/04/02 04:24:41;;;;;;;;;;;;;;;;;;5002047;28;19921;-72
2021/04/02 04:27:07;;;;;;;;;;;;;;;;;;4955320;28;19969;-72
2021/04/02 04:29:37;;;;;;;;;;;;;;;;;;4955863;28;20012;-72
2021/04/02 04:32:04;;;;;;;;;;;;;;;;;;4955746;28;20443;-72
2021/04/02 04:34:30;;;;;;;;;;;;;;;;;;4956734;28;19926;-72
2021/04/02 04:36:56;;;;;;;;;;;;;;;;;;4955141;28;19926;-72
2021/04/02 04:39:22;;;;;;;;;;;;;;;;;;4972917;28;19929;-72
2021/04/02 04:41:48;;;;;;;;;;;;;;;;;;4972732;28;19965;-72
2021/04/02 04:44:14;;;;;;;;;;;;;;;;;;4955619;28;19934;-72
2021/04/02 04:46:40;;;;;;;;;;;;;;;;;;4954952;28;20381;-72
2021/04/02 04:49:06;;;;;;;;;;;;;;;;;;4972821;28;20536;-72
2021/04/02 04:51:32;;;;;;;;;;;;;;;;;;4955835;28;19984;-72
2021/04/02 04:53:58;;;;;;;;;;;;;;;;;;4972804;28;19969;-72
2021/04/02 04:56:28;;;;;;;;;;;;;;;;;;4954874;28;19922;-72
2021/04/02 04:58:55;;;;;;;;;;;;;;;;;;4974431;28;19969;-72
2021/04/02 05:01:21;;;;;;;;;;;;;;;;;;4974816;28;20391;-72
2021/04/02 05:03:47;;;;;;;;;;;;;;;;;;4992167;28;19922;-72
2021/04/02 05:06:13;;;;;;;;;;;;;;;;;;4993611;28;19922;-72
2021/04/02 05:08:40;;;;;;;;;;;;;;;;;;4994533;28;19964;-72
2021/04/02 05:11:09;;;;;;;;;;;;;;;;;;4994370;28;20392;-72
2021/04/02 05:13:35;;;;;;;;;;;;;;;;;;4994437;28;19983;-72
2021/04/02 05:16:01;;;;;;;;;;;;;;;;;;4993633;28;20359;-72
2021/04/02 05:18:28;;;;;;;;;;;;;;;;;;4994568;28;20059;-72
2021/04/02 05:20:55;;;;;;;;;;;;;;;;;;4994358;28;19922;-72
2021/04/02 05:23:21;;;;;;;;;;;;;;;;;;4995146;28;20020;-72
2021/04/02 05:25:47;;;;;;;;;;;;;;;;;;4994557;28;19925;-72
2021/04/02 05:28:12;;;;;;;;;;;;;;;;;;4995156;28;20016;-72
2021/04/02 05:30:38;;;;;;;;;;;;;;;;;;4994051;28;19922;-72
2021/04/02 05:33:04;;;;;;;;;;;;;;;;;;4994173;28;19922;-72
2021/04/02 05:35:31;;;;;;;;;;;;;;;;;;4994182;28;19980;-72
2021/04/02 05:37:57;;;;;;;;;;;;;;;;;;4995089;28;20387;-72
2021/04/02 05:40:23;;;;;;;;;;;;;;;;;;4993744;28;19922;-72
2021/04/02 05:42:52;;;;;;;;;;;;;;;;;;4993973;28;19922;-72
2021/04/02 05:45:18;;;;;;;;;;;;;;;;;;4994382;28;19961;-72
2021/04/02 05:47:44;;;;;;;;;;;;;;;;;;4994932;28;19922;-72
2021/04/02 05:50:10;;;;;;;;;;;;;;;;;;4993819;28;19921;-72
2021/04/02 05:52:36;;;;;;;;;;;;;;;;;;4994708;28;19976;-72
2021/04/02 05:55:03;;;;;;;;;;;;;;;;;;4994528;28;19922;-72
2021/04/02 05:57:28;;;;;;;;;;;;;;;;;;4992959;28;20091;-72
2021/04/02 05:59:55;;;;;;;;;;;;;;;;;;4994639;28;20005;-72
2021/04/02 06:02:21;;;;;;;;;;;;;;;;;;4993510;28;19922;-72
2021/04/02 06:04:47;;;;;;;;;;;;;;;;;;4993699;28;19972;-73
2021/04/02 06:07:13;;;;;;;;;;;;;;;;;;4992494;28;19953;-73
2021/04/02 06:09:39;;;;;;;;;;;;;;;;;;4994546;28;19929;-72
2021/04/02 06:12:05;;;;;;;;;;;;;;;;;;4994634;28;19960;-72
2021/04/02 06:14:31;;;;;;;;;;;;;;;;;;4994245;28;20305;-72
2021/04/02 06:16:57;;;;;;;;;;;;;;;;;;5008084;28;19922;-72
2021/04/02 06:19:23;;;;;;;;;;;;;;;;;;4988849;28;19922;-72
2021/04/02 06:21:49;;;;;;;;;;;;;;;;;;4974820;28;19965;-72
2021/04/02 06:24:16;;;;;;;;;;;;;;;;;;4974753;28;19976;-71
2021/04/02 06:27:00;;;;;;;;;;;;;;;;;;4974294;28;19964;-71
2021/04/02 06:29:30;;;;;;;;;;;;;;;;;;4974559;28;19930;-71
2021/04/02 06:31:56;;;;;;;;;;;;;;;;;;4955477;28;19965;-71
2021/04/02 06:34:23;;;;;;;;;;;;;;;;;;4972695;28;20019;-70
2021/04/02 06:36:50;;;;;;;;;;;;;;;;;;4954588;28;20392;-71
2021/04/02 06:39:16;;;;;;;;;;;;;;;;;;4972413;28;20388;-71
2021/04/02 06:41:42;;;;;;;;;;;;;;;;;;4972494;28;19996;-71
2021/04/02 06:44:09;;;;;;;;;;;;;;;;;;4954522;28;19964;-71
2021/04/02 06:46:35;;;;;;;;;;;;;;;;;;4971680;28;20352;-71
2021/04/02 06:49:11;;;;;;;;;;;;;;;;;;4986966;28;19928;-71
2021/04/02 06:51:39;;;;;;;;;;;;;;;;;;4991825;28;19926;-71
2021/04/02 06:54:18;;;;;;;;;;;;;;;;;;4992139;28;19933;-72
2021/04/02 06:56:50;;;;;;;;;;;;;;;;;;4991630;28;19977;-71
2021/04/02 06:59:17;;;;;;;;;;;;;;;;;;4991378;28;19969;-72
2021/04/02 07:01:44;;;;;;;;;;;;;;;;;;4991898;28;19921;-71
2021/04/02 07:04:11;;;;;;;;;;;;;;;;;;4991324;28;20376;-72
2021/04/02 07:06:37;;;;;;;;;;;;;;;;;;5005822;28;19976;-71
2021/04/02 07:09:03;;;;;;;;;;;;;;;;;;4987618;28;20175;-71
2021/04/02 07:11:29;;;;;;;;;;;;;;;;;;4972904;28;19985;-71
2021/04/02 07:13:59;;;;;;;;;;;;;;;;;;5006076;28;19992;-71
2021/04/02 07:16:25;;;;;;;;;;;;;;;;;;5004764;28;19921;-70
2021/04/02 07:18:51;;;;;;;;;;;;;;;;;;4989562;28;20384;-73
2021/04/02 07:21:17;;;;;;;;;;;;;;;;;;4994457;28;20285;-72
2021/04/02 07:23:43;;;;;;;;;;;;;;;;;;4980393;28;19976;-71
2021/04/02 07:26:09;;;;;;;;;;;;;;;;;;4976192;28;20008;-72
2021/04/02 07:28:36;;;;;;;;;;;;;;;;;;4982784;28;19961;-71
2021/04/02 07:31:04;;;;;;;;;;;;;;;;;;4979481;28;19925;-72
2021/04/02 07:33:30;;;;;;;;;;;;;;;;;;4979850;28;19929;-73
2021/04/02 07:35:57;;;;;;;;;;;;;;;;;;4996934;28;19972;-72
2021/04/02 07:38:24;;;;;;;;;;;;;;;;;;4985861;28;20300;-72
2021/04/02 07:40:50;;;;;;;;;;;;;;;;;;4978949;28;19922;-71
2021/04/02 07:43:17;;;;;;;;;;;;;;;;;;4996694;28;19926;-73
2021/04/02 07:45:51;;;;;;;;;;;;;;;;;;4993090;28;19976;-72
2021/04/02 07:48:18;;;;;;;;;;;;;;;;;;4977868;28;19957;-72
2021/04/02 07:50:47;;;;;;;;;;;;;;;;;;4980701;28;20001;-72
2021/04/02 07:53:16;;;;;;;;;;;;;;;;;;4978012;28;20038;-72
2021/04/02 07:55:49;;;;;;;;;;;;;;;;;;4979830;28;19996;-72
2021/04/02 07:58:21;;;;;;;;;;;;;;;;;;4979314;28;19972;-72
2021/04/02 08:00:48;;;;;;;;;;;;;;;;;;4982372;28;20462;-72
2021/04/02 08:03:14;;;;;;;;;;;;;;;;;;4980952;28;19926;-74
2021/04/02 08:05:59;;;;;;;;;;;;;;;;;;4998943;23;19921;-72
2021/04/02 08:08:25;;;;;;;;;;;;;;;;;;5031055;28;20002;-73
2021/04/02 08:11:12;;;;;;;;;;;;;;;;;;5030918;28;19927;-73
2021/04/02 08:13:54;;;;;;;;;;;;;;;;;;5027494;28;19960;-73
2021/04/02 08:16:32;;;;;;;;;;;;;;;;;;5029453;28;20354;-72
2021/04/02 08:19:05;;;;;;;;;;;;;;;;;;5030432;28;19955;-70
2021/04/02 08:21:34;;;;;;;;;;;;;;;;;;5030309;28;20449;-70
2021/04/02 08:24:02;;;;;;;;;;;;;;;;;;5030521;28;19952;-71
2021/04/02 08:26:29;;;;;;;;;;;;;;;;;;5029489;28;19972;-70
2021/04/02 08:28:55;;;;;;;;;;;;;;;;;;5030255;28;19921;-70
2021/04/02 08:31:22;;;;;;;;;;;;;;;;;;5030160;28;19927;-71
2021/04/02 08:33:48;;;;;;;;;;;;;;;;;;5029710;28;19921;-71
2021/04/02 08:36:18;;;;;;;;;;;;;;;;;;5011650;28;19943;-74
2021/04/02 08:38:50;;;;;;;;;;;;;;;;;;4977140;28;20063;-70
2021/04/02 08:41:24;;;;;;;;;;;;;;;;;;5003647;28;19968;-70
2021/04/02 08:43:50;;;;;;;;;;;;;;;;;;4994583;28;20027;-72
2021/04/02 08:46:16;;;;;;;;;;;;;;;;;;4994119;28;20042;-71
2021/04/02 08:48:46;;;;;;;;;;;;;;;;;;4994464;28;19922;-72
2021/04/02 08:51:19;;;;;;;;;;;;;;;;;;4991914;28;19921;-72
2021/04/02 08:53:45;;;;;;;;;;;;;;;;;;4993311;28;19961;-71
2021/04/02 08:56:19;;;;;;;;;;;;;;;;;;4993016;28;19925;-71
2021/04/02 08:58:45;;;;;;;;;;;;;;;;;;4991995;28;20408;-72
2021/04/02 09:01:12;;;;;;;;;;;;;;;;;;4992997;28;21065;-70
2021/04/02 09:03:38;;;;;;;;;;;;;;;;;;4991864;28;19968;-70
2021/04/02 09:06:04;;;;;;;;;;;;;;;;;;4991391;28;19933;-70
2021/04/02 09:08:32;;;;;;;;;;;;;;;;;;4993694;28;20449;-73
2021/04/02 09:10:58;;;;;;;;;;;;;;;;;;4989412;28;19968;-75
2021/04/02 09:13:43;;;;;;;;;;;;;;;;;;4987520;28;20560;-76
2021/04/02 09:16:14;;;;;;;;;;;;;;;;;;4999366;28;19925;-76
2021/04/02 09:18:47;;;;;;;;;;;;;;;;;;4993126;28;20347;-77
2021/04/02 09:21:13;;;;;;;;;;;;;;;;;;4988381;28;20019;-77
2021/04/02 09:23:39;;;;;;;;;;;;;;;;;;5001215;28;20376;-76
2021/04/02 09:26:06;;;;;;;;;;;;;;;;;;4994031;28;19969;-77
2021/04/02 09:28:32;;;;;;;;;;;;;;;;;;4993850;28;20400;-75
2021/04/02 09:31:17;;;;;;;;;;;;;;;;;;4999902;28;20001;-72
2021/04/02 09:37:11;;;;;;;;;;;;;;;;;;4831510;28;19951;-78
2021/04/02 09:39:50;;;;;;;;;;;;;;;;;;4729973;28;726055;-79
2021/04/02 09:44:25;;;;;;;;;;;;;;;;;;5039454;27;19921;-78
2021/04/02 09:47:38;;;;;;;;;;;;;;;;;;5104437;27;20309;-72
2021/04/02 09:51:47;;;;;;;;;;;;;;;;;;5067546;27;20347;-77
2021/04/02 09:54:14;;;;;;;;;;;;;;;;;;5006460;28;19929;-76
2021/04/02 09:56:42;;;;;;;;;;;;;;;;;;5056936;28;19925;-71
2021/04/02 09:59:08;;;;;;;;;;;;;;;;;;5046875;28;19978;-74
2021/04/02 10:01:35;;;;;;;;;;;;;;;;;;5037430;28;20259;-71
2021/04/02 10:04:01;;;;;;;;;;;;;;;;;;5029797;27;19982;-70
2021/04/02 10:06:28;;;;;;;;;;;;;;;;;;5052562;28;19964;-74
2021/04/02 10:08:57;;;;;;;;;;;;;;;;;;5062333;28;20012;-72
2021/04/02 10:11:50;;;;;;;;;;;;;;;;;;5028274;28;20119;-72
2021/04/02 10:14:17;;;;;;;;;;;;;;;;;;5044329;28;19975;-73
2021/04/02 10:16:45;;;;;;;;;;;;;;;;;;5045908;28;19987;-71
2021/04/02 10:19:11;;;;;;;;;;;;;;;;;;5046995;28;19983;-71
2021/04/02 10:21:37;;;;;;;;;;;;;;;;;;5043957;28;19996;-70
2021/04/02 10:24:04;;;;;;;;;;;;;;;;;;5044832;28;20435;-71
2021/04/02 10:26:30;;;;;;;;;;;;;;;;;;5046949;28;19987;-70
2021/04/02 10:28:56;;;;;;;;;;;;;;;;;;5044241;28;19948;-69
2021/04/02 10:31:22;;;;;;;;;;;;;;;;;;5046651;28;19925;-70
2021/04/02 10:33:48;;;;;;;;;;;;;;;;;;5046571;28;19925;-71
2021/04/02 10:36:14;;;;;;;;;;;;;;;;;;5047069;28;19951;-70
2021/04/02 10:38:40;;;;;;;;;;;;;;;;;;5036283;28;20040;-71
2021/04/02 10:41:06;;;;;;;;;;;;;;;;;;5072523;28;20018;-70
2021/04/02 10:43:33;;;;;;;;;;;;;;;;;;5038291;28;19933;-72
2021/04/02 10:45:59;;;;;;;;;;;;;;;;;;5044900;28;19925;-72
2021/04/02 10:48:25;;;;;;;;;;;;;;;;;;5041581;28;19991;-70
2021/04/02 10:50:52;;;;;;;;;;;;;;;;;;5041768;28;20351;-70
2021/04/02 10:53:18;;;;;;;;;;;;;;;;;;5045019;28;19986;-70
2021/04/02 10:55:44;;;;;;;;;;;;;;;;;;5046081;28;20019;-71
2021/04/02 10:58:10;;;;;;;;;;;;;;;;;;5046268;28;19975;-70
2021/04/02 11:00:39;;;;;;;;;;;;;;;;;;5043728;28;19982;-72
2021/04/02 11:03:08;;;;;;;;;;;;;;;;;;5039791;28;19933;-72
2021/04/02 11:05:34;;;;;;;;;;;;;;;;;;5031519;28;19933;-68
2021/04/02 11:08:00;;;;;;;;;;;;;;;;;;5037081;28;20660;-70
2021/04/02 11:10:27;;;;;;;;;;;;;;;;;;5033010;28;19981;-73
2021/04/02 11:12:53;;;;;;;;;;;;;;;;;;5028192;28;20008;-70
2021/04/02 11:15:19;;;;;;;;;;;;;;;;;;5024017;28;20437;-71
2021/04/02 11:17:46;;;;;;;;;;;;;;;;;;5029835;28;19975;-72
2021/04/02 11:20:13;;;;;;;;;;;;;;;;;;5031883;28;19976;-70
2021/04/02 11:22:39;;;;;;;;;;;;;;;;;;5031675;28;19971;-72
2021/04/02 11:25:06;;;;;;;;;;;;;;;;;;5032297;28;20022;-70
2021/04/02 11:27:32;;;;;;;;;;;;;;;;;;5032022;28;19983;-71
2021/04/02 11:29:58;;;;;;;;;;;;;;;;;;5032352;28;20346;-72
2021/04/02 11:32:24;;;;;;;;;;;;;;;;;;5030689;28;19945;-71
2021/04/02 11:34:50;;;;;;;;;;;;;;;;;;5030125;28;20208;-71
2021/04/02 11:37:16;;;;;;;;;;;;;;;;;;5031468;28;19931;-71
2021/04/02 11:39:42;;;;;;;;;;;;;;;;;;5030784;28;20384;-71
2021/04/02 11:42:08;;;;;;;;;;;;;;;;;;5031985;28;19932;-71
2021/04/02 11:44:34;;;;;;;;;;;;;;;;;;5030791;28;19929;-73
2021/04/02 11:47:00;;;;;;;;;;;;;;;;;;5023078;28;19952;-72
2021/04/02 11:49:26;;;;;;;;;;;;;;;;;;5026781;28;20000;-72
2021/04/02 11:51:53;;;;;;;;;;;;;;;;;;5023932;28;19930;-70
2021/04/02 11:54:19;;;;;;;;;;;;;;;;;;5027584;28;20442;-70
2021/04/02 11:56:46;;;;;;;;;;;;;;;;;;5025042;28;20083;-70
2021/04/02 11:59:13;;;;;;;;;;;;;;;;;;5020370;28;20579;-70
2021/04/02 12:01:39;;;;;;;;;;;;;;;;;;5013118;28;19926;-70
2021/04/02 12:04:06;;;;;;;;;;;;;;;;;;5010919;28;20375;-69
2021/04/02 12:06:32;;;;;;;;;;;;;;;;;;5008917;28;19925;-70
2021/04/02 12:08:58;;;;;;;;;;;;;;;;;;5010962;28;19983;-70
2021/04/02 12:11:24;;;;;;;;;;;;;;;;;;5010070;28;20019;-70
2021/04/02 12:13:50;;;;;;;;;;;;;;;;;;5010303;28;20467;-70
2021/04/02 12:16:16;;;;;;;;;;;;;;;;;;5010692;28;19987;-70
2021/04/02 12:18:42;;;;;;;;;;;;;;;;;;5011385;28;19926;-70
2021/04/02 12:21:08;;;;;;;;;;;;;;;;;;5009314;28;19973;-70
2021/04/02 12:23:33;;;;;;;;;;;;;;;;;;5010071;28;19933;-69
2021/04/02 12:25:59;;;;;;;;;;;;;;;;;;5025028;28;20210;-70
2021/04/02 12:28:25;;;;;;;;;;;;;;;;;;5010615;28;19932;-69
2021/04/02 12:30:52;;;;;;;;;;;;;;;;;;5010414;28;20019;-70
2021/04/02 12:33:18;;;;;;;;;;;;;;;;;;5010448;28;19925;-69
2021/04/02 12:35:44;;;;;;;;;;;;;;;;;;5010061;28;20291;-70
2021/04/02 12:38:10;;;;;;;;;;;;;;;;;;5007821;28;19983;-70
2021/04/02 12:40:36;;;;;;;;;;;;;;;;;;5010455;28;19964;-70
2021/04/02 12:43:02;;;;;;;;;;;;;;;;;;5012355;28;19933;-74
2021/04/02 12:45:29;;;;;;;;;;;;;;;;;;5011575;28;19929;-68
2021/04/02 12:47:55;;;;;;;;;;;;;;;;;;5012269;28;20384;-70
2021/04/02 12:50:22;;;;;;;;;;;;;;;;;;5012417;28;19965;-70
2021/04/02 12:52:48;;;;;;;;;;;;;;;;;;5011926;28;19933;-70
2021/04/02 12:55:18;;;;;;;;;;;;;;;;;;5011959;28;19934;-70
2021/04/02 12:57:44;;;;;;;;;;;;;;;;;;5016623;28;19973;-70
2021/04/02 13:00:15;;;;;;;;;;;;;;;;;;5017704;28;20308;-71
2021/04/02 13:02:41;;;;;;;;;;;;;;;;;;5012283;28;19996;-71
2021/04/02 13:05:07;;;;;;;;;;;;;;;;;;5011960;28;19980;-71
2021/04/02 13:07:33;;;;;;;;;;;;;;;;;;5011036;28;20048;-71
2021/04/02 13:09:59;;;;;;;;;;;;;;;;;;5012140;28;20362;-71
2021/04/02 13:12:25;;;;;;;;;;;;;;;;;;5011773;28;20308;-70
2021/04/02 13:14:51;;;;;;;;;;;;;;;;;;5012087;28;20020;-71
2021/04/02 13:17:17;;;;;;;;;;;;;;;;;;5011523;28;20020;-71
2021/04/02 13:19:43;;;;;;;;;;;;;;;;;;5012025;28;19973;-70
2021/04/02 13:22:10;;;;;;;;;;;;;;;;;;5011774;28;20024;-71
2021/04/02 13:24:37;;;;;;;;;;;;;;;;;;5011585;28;19929;-71
2021/04/02 13:27:03;;;;;;;;;;;;;;;;;;5026491;28;19999;-71
2021/04/02 13:29:29;;;;;;;;;;;;;;;;;;5011774;28;19937;-70
2021/04/02 13:31:55;;;;;;;;;;;;;;;;;;5011762;28;19981;-70
2021/04/02 13:34:21;;;;;;;;;;;;;;;;;;5011733;28;20369;-71
2021/04/02 13:36:47;;;;;;;;;;;;;;;;;;5011098;28;20439;-71
2021/04/02 13:39:13;;;;;;;;;;;;;;;;;;5011871;28;19987;-71
2021/04/02 13:41:39;;;;;;;;;;;;;;;;;;5011397;28;19984;-71
2021/04/02 13:44:05;;;;;;;;;;;;;;;;;;5012464;28;19937;-71
2021/04/02 13:46:31;;;;;;;;;;;;;;;;;;5011581;28;20396;-72
2021/04/02 13:48:57;;;;;;;;;;;;;;;;;;5011857;28;20300;-71
2021/04/02 13:51:23;;;;;;;;;;;;;;;;;;5011437;28;19964;-71
2021/04/02 13:53:49;;;;;;;;;;;;;;;;;;5027004;28;19980;-71
2021/04/02 13:56:15;;;;;;;;;;;;;;;;;;5010804;28;19931;-73
2021/04/02 13:58:41;;;;;;;;;;;;;;;;;;5011173;28;20357;-72
2021/04/02 14:01:07;;;;;;;;;;;;;;;;;;5012639;28;19957;-72
2021/04/02 14:03:33;;;;;;;;;;;;;;;;;;5011495;28;20229;-72
2021/04/02 14:05:59;;;;;;;;;;;;;;;;;;5010161;28;19925;-71
2021/04/02 14:08:25;;;;;;;;;;;;;;;;;;5010844;28;19972;-70
2021/04/02 14:10:51;;;;;;;;;;;;;;;;;;5011527;28;20025;-71
2021/04/02 14:13:17;;;;;;;;;;;;;;;;;;5011385;28;20021;-70
2021/04/02 14:15:43;;;;;;;;;;;;;;;;;;5010980;28;19929;-70
2021/04/02 14:18:10;;;;;;;;;;;;;;;;;;5011795;28;19925;-70
2021/04/02 14:20:37;;;;;;;;;;;;;;;;;;5011349;28;20072;-70
2021/04/02 14:23:15;;;;;;;;;;;;;;;;;;5011149;28;19956;-70
2021/04/02 14:25:41;;;;;;;;;;;;;;;;;;5011039;28;19972;-71
2021/04/02 14:28:07;;;;;;;;;;;;;;;;;;5011589;28;19929;-70
2021/04/02 14:30:40;;;;;;;;;;;;;;;;;;5011210;28;20296;-70
2021/04/02 14:33:06;;;;;;;;;;;;;;;;;;5011244;28;19972;-71
2021/04/02 14:35:33;;;;;;;;;;;;;;;;;;5011003;28;19930;-71
2021/04/02 14:38:00;;;;;;;;;;;;;;;;;;5014829;28;19948;-70
2021/04/02 14:40:26;;;;;;;;;;;;;;;;;;5015099;28;19925;-70
2021/04/02 14:42:51;;;;;;;;;;;;;;;;;;5015577;28;19932;-71
2021/04/02 14:45:18;;;;;;;;;;;;;;;;;;5014824;28;20438;-70
2021/04/02 14:47:45;;;;;;;;;;;;;;;;;;5015547;28;19925;-70
2021/04/02 14:50:12;;;;;;;;;;;;;;;;;;5015595;28;19964;-71
2021/04/02 14:52:38;;;;;;;;;;;;;;;;;;5015094;28;19952;-70
2021/04/02 14:55:04;;;;;;;;;;;;;;;;;;5012230;28;19974;-68
2021/04/02 14:57:30;;;;;;;;;;;;;;;;;;5013398;28;19976;-70
2021/04/02 14:59:56;;;;;;;;;;;;;;;;;;5026225;28;19957;-70
2021/04/02 15:02:22;;;;;;;;;;;;;;;;;;4991046;28;19934;-70
2021/04/02 15:04:48;;;;;;;;;;;;;;;;;;4994696;28;19932;-72
2021/04/02 15:07:14;;;;;;;;;;;;;;;;;;4990290;28;20290;-74
2021/04/02 15:09:40;;;;;;;;;;;;;;;;;;5005760;28;19972;-71
2021/04/02 15:12:06;;;;;;;;;;;;;;;;;;5013708;28;19929;-68
2021/04/02 15:14:32;;;;;;;;;;;;;;;;;;5014031;28;19973;-69
2021/04/02 15:16:58;;;;;;;;;;;;;;;;;;5013160;28;20032;-70
2021/04/02 15:19:24;;;;;;;;;;;;;;;;;;5014105;28;19929;-69
2021/04/02 15:21:50;;;;;;;;;;;;;;;;;;5009479;28;19925;-73
2021/04/02 15:24:16;;;;;;;;;;;;;;;;;;5003203;28;19929;-73
2021/04/02 15:26:43;;;;;;;;;;;;;;;;;;5021660;28;19933;-72
2021/04/02 15:29:09;;;;;;;;;;;;;;;;;;5025763;28;19988;-73
2021/04/02 15:31:35;;;;;;;;;;;;;;;;;;5028403;28;20016;-73
2021/04/02 15:34:01;;;;;;;;;;;;;;;;;;5021245;28;19932;-75
2021/04/02 15:36:27;;;;;;;;;;;;;;;;;;5033699;28;20005;-76
2021/04/02 15:38:54;;;;;;;;;;;;;;;;;;5024267;28;19929;-76
2021/04/02 15:41:20;;;;;;;;;;;;;;;;;;5034527;28;20393;-75
2021/04/02 15:43:49;;;;;;;;;;;;;;;;;;5043044;28;19930;-76
2021/04/02 15:46:15;;;;;;;;;;;;;;;;;;5044019;22;19933;-72
2021/04/02 15:48:41;;;;;;;;;;;;;;;;;;5009626;28;19936;-74
2021/04/02 15:51:08;;;;;;;;;;;;;;;;;;5006540;28;19934;-73
2021/04/02 15:53:34;;;;;;;;;;;;;;;;;;5011348;28;20265;-72
2021/04/02 15:56:00;;;;;;;;;;;;;;;;;;4993555;28;19926;-72
2021/04/02 15:58:26;;;;;;;;;;;;;;;;;;5011982;28;19988;-72
2021/04/02 16:00:52;;;;;;;;;;;;;;;;;;5004500;28;19925;-72
2021/04/02 16:03:18;;;;;;;;;;;;;;;;;;4992859;28;19929;-73
2021/04/02 16:05:44;;;;;;;;;;;;;;;;;;4988267;28;19929;-72
2021/04/02 16:08:12;;;;;;;;;;;;;;;;;;5002855;28;20285;-71
2021/04/02 16:10:42;;;;;;;;;;;;;;;;;;5008529;28;20032;-72
2021/04/02 16:13:09;;;;;;;;;;;;;;;;;;5004531;28;19964;-73
2021/04/02 16:15:35;;;;;;;;;;;;;;;;;;5010105;28;20348;-71
2021/04/02 16:18:01;;;;;;;;;;;;;;;;;;5007942;28;19948;-73
2021/04/02 16:20:27;;;;;;;;;;;;;;;;;;5007260;28;19929;-73
2021/04/02 16:22:54;;;;;;;;;;;;;;;;;;5002546;28;19980;-70
2021/04/02 16:25:20;;;;;;;;;;;;;;;;;;5004101;28;19973;-69
2021/04/02 16:27:46;;;;;;;;;;;;;;;;;;5007901;28;19926;-69
2021/04/02 16:30:14;;;;;;;;;;;;;;;;;;5010248;28;19945;-69
2021/04/02 16:32:40;;;;;;;;;;;;;;;;;;5008243;28;20835;-70
2021/04/02 16:35:07;;;;;;;;;;;;;;;;;;5011214;28;19925;-70
2021/04/02 16:37:33;;;;;;;;;;;;;;;;;;5004192;28;19930;-71
2021/04/02 16:39:59;;;;;;;;;;;;;;;;;;5010471;28;20277;-70
2021/04/02 16:42:25;;;;;;;;;;;;;;;;;;5003665;28;19977;-70
2021/04/02 16:44:51;;;;;;;;;;;;;;;;;;5011440;28;19933;-70
2021/04/02 16:47:17;;;;;;;;;;;;;;;;;;5010299;28;19984;-70
2021/04/02 16:49:43;;;;;;;;;;;;;;;;;;5011994;28;20368;-70
2021/04/02 16:52:09;;;;;;;;;;;;;;;;;;5010258;28;20343;-70
2021/04/02 16:54:35;;;;;;;;;;;;;;;;;;5008369;28;20028;-70